West Park, Florida
Current Conditions -  °F | °C
As of 2:53 PM on Thursday 30 Oct 2014 (Local Time) from KHWO Reporting Station
Scattered Clouds Scattered Clouds  
Wind Chill: 84°   Ceiling: Unl
Heat Index: 85°   Visibility: 10mi
Dew Point: 62°   Wind: 9mph
Humidity: 47%   Direction: 80°E
Pressure: 29.9"   Gusts: NA
Location:  25.9895°N, 80.2144°W
Report Text: KHWO 301853Z 08008KT 10SM SCT050 29/17 A2990 RMK AO2 SLP124 T02890167
Loading
Personal Weather Stations






























Interactive Weather Map
Tropical Storm Tracking
New forecast layout! Learn more

10-Day Weather Forecast

Advertisements
Track Severe Weather on mobile